Main page
Satellite images Climate Cyclones Lightning AirportsFAQ Languages Contact Newsletter About
Weather : Europe Africa North America South America Asia Australia-Oceania Others

, Langkawi, Langkawi International Airport

latitude: , longitude: Malaysia, elevation: 06-20N m


METAR: WMKL 270000Z 00000KT 6000 FEW020 SCT140 BKN270 27/26 Q1008